sensor_id;sensor_type;location;lat;lon;timestamp;P1;durP1;ratioP1;P2;durP2;ratioP2
18726;SDS011;9492;51.888;5.186;2024-01-10T00:00:19;4.43;;;3.53;;
18726;SDS011;9492;51.888;5.186;2024-01-10T00:02:45;3.40;;;2.80;;
18726;SDS011;9492;51.888;5.186;2024-01-10T00:05:11;3.07;;;2.83;;
18726;SDS011;9492;51.888;5.186;2024-01-10T00:07:37;3.40;;;2.70;;
18726;SDS011;9492;51.888;5.186;2024-01-10T00:10:04;3.57;;;2.90;;
18726;SDS011;9492;51.888;5.186;2024-01-10T00:12:30;4.63;;;3.30;;
18726;SDS011;9492;51.888;5.186;2024-01-10T00:15:00;3.70;;;2.80;;
18726;SDS011;9492;51.888;5.186;2024-01-10T00:17:26;3.40;;;2.97;;
18726;SDS011;9492;51.888;5.186;2024-01-10T00:19:52;4.83;;;3.27;;
18726;SDS011;9492;51.888;5.186;2024-01-10T00:22:18;3.60;;;2.80;;
18726;SDS011;9492;51.888;5.186;2024-01-10T00:24:47;4.73;;;3.13;;
18726;SDS011;9492;51.888;5.186;2024-01-10T00:27:13;4.87;;;3.20;;
18726;SDS011;9492;51.888;5.186;2024-01-10T00:29:42;5.60;;;3.67;;
18726;SDS011;9492;51.888;5.186;2024-01-10T00:32:08;4.77;;;3.50;;
18726;SDS011;9492;51.888;5.186;2024-01-10T00:34:34;3.50;;;3.03;;
18726;SDS011;9492;51.888;5.186;2024-01-10T00:36:59;6.80;;;3.30;;
18726;SDS011;9492;51.888;5.186;2024-01-10T00:39:25;4.40;;;3.20;;
18726;SDS011;9492;51.888;5.186;2024-01-10T00:41:51;4.77;;;2.97;;
18726;SDS011;9492;51.888;5.186;2024-01-10T00:44:17;4.07;;;3.00;;
18726;SDS011;9492;51.888;5.186;2024-01-10T00:46:44;5.27;;;3.10;;
18726;SDS011;9492;51.888;5.186;2024-01-10T00:49:09;3.80;;;3.20;;
18726;SDS011;9492;51.888;5.186;2024-01-10T00:51:35;3.93;;;3.07;;
18726;SDS011;9492;51.888;5.186;2024-01-10T00:54:01;3.77;;;3.33;;
18726;SDS011;9492;51.888;5.186;2024-01-10T00:56:27;3.40;;;3.10;;
18726;SDS011;9492;51.888;5.186;2024-01-10T00:58:53;4.40;;;3.10;;
18726;SDS011;9492;51.888;5.186;2024-01-10T01:01:22;4.37;;;3.30;;
18726;SDS011;9492;51.888;5.186;2024-01-10T01:03:49;4.40;;;3.43;;
18726;SDS011;9492;51.888;5.186;2024-01-10T01:06:15;4.10;;;3.27;;
18726;SDS011;9492;51.888;5.186;2024-01-10T01:08:41;4.37;;;3.00;;
18726;SDS011;9492;51.888;5.186;2024-01-10T01:11:07;3.80;;;3.40;;
18726;SDS011;9492;51.888;5.186;2024-01-10T01:13:33;3.10;;;2.80;;
18726;SDS011;9492;51.888;5.186;2024-01-10T01:15:59;4.50;;;3.00;;
18726;SDS011;9492;51.888;5.186;2024-01-10T01:18:25;6.57;;;3.50;;
18726;SDS011;9492;51.888;5.186;2024-01-10T01:20:51;4.47;;;3.43;;
18726;SDS011;9492;51.888;5.186;2024-01-10T01:23:17;3.70;;;3.10;;
18726;SDS011;9492;51.888;5.186;2024-01-10T01:25:44;4.93;;;3.33;;
18726;SDS011;9492;51.888;5.186;2024-01-10T01:28:10;6.40;;;3.77;;
18726;SDS011;9492;51.888;5.186;2024-01-10T01:30:36;4.67;;;3.33;;
18726;SDS011;9492;51.888;5.186;2024-01-10T01:33:04;3.87;;;3.47;;
18726;SDS011;9492;51.888;5.186;2024-01-10T01:35:30;4.40;;;3.37;;
18726;SDS011;9492;51.888;5.186;2024-01-10T01:37:56;4.37;;;3.40;;
18726;SDS011;9492;51.888;5.186;2024-01-10T01:40:22;3.43;;;2.90;;
18726;SDS011;9492;51.888;5.186;2024-01-10T01:42:48;5.23;;;3.60;;
18726;SDS011;9492;51.888;5.186;2024-01-10T01:45:14;4.03;;;3.40;;
18726;SDS011;9492;51.888;5.186;2024-01-10T01:47:40;5.43;;;3.60;;
18726;SDS011;9492;51.888;5.186;2024-01-10T01:50:06;6.13;;;3.63;;
18726;SDS011;9492;51.888;5.186;2024-01-10T01:52:33;4.30;;;3.20;;
18726;SDS011;9492;51.888;5.186;2024-01-10T01:55:00;4.70;;;3.30;;
18726;SDS011;9492;51.888;5.186;2024-01-10T01:57:26;5.57;;;3.43;;
18726;SDS011;9492;51.888;5.186;2024-01-10T01:59:52;5.57;;;2.93;;
18726;SDS011;9492;51.888;5.186;2024-01-10T02:02:18;4.10;;;3.30;;
18726;SDS011;9492;51.888;5.186;2024-01-10T02:04:45;3.80;;;3.30;;
18726;SDS011;9492;51.888;5.186;2024-01-10T02:07:12;5.23;;;3.57;;
18726;SDS011;9492;51.888;5.186;2024-01-10T02:09:38;4.67;;;3.80;;
18726;SDS011;9492;51.888;5.186;2024-01-10T02:12:04;3.70;;;3.10;;
18726;SDS011;9492;51.888;5.186;2024-01-10T02:14:30;3.80;;;3.00;;
18726;SDS011;9492;51.888;5.186;2024-01-10T02:16:56;3.30;;;3.00;;
18726;SDS011;9492;51.888;5.186;2024-01-10T02:19:23;5.13;;;3.60;;
18726;SDS011;9492;51.888;5.186;2024-01-10T02:21:51;4.63;;;3.47;;
18726;SDS011;9492;51.888;5.186;2024-01-10T02:24:17;5.07;;;3.47;;
18726;SDS011;9492;51.888;5.186;2024-01-10T02:26:43;3.67;;;3.30;;
18726;SDS011;9492;51.888;5.186;2024-01-10T02:29:10;4.77;;;3.70;;
18726;SDS011;9492;51.888;5.186;2024-01-10T02:31:36;4.63;;;3.07;;
18726;SDS011;9492;51.888;5.186;2024-01-10T02:34:02;4.47;;;3.50;;
18726;SDS011;9492;51.888;5.186;2024-01-10T02:36:28;4.97;;;3.30;;
18726;SDS011;9492;51.888;5.186;2024-01-10T02:38:54;4.73;;;3.30;;
18726;SDS011;9492;51.888;5.186;2024-01-10T02:41:20;4.33;;;3.20;;
18726;SDS011;9492;51.888;5.186;2024-01-10T02:43:46;4.37;;;3.20;;
18726;SDS011;9492;51.888;5.186;2024-01-10T02:46:12;4.83;;;3.13;;
18726;SDS011;9492;51.888;5.186;2024-01-10T02:48:38;3.77;;;3.20;;
18726;SDS011;9492;51.888;5.186;2024-01-10T02:51:04;4.63;;;3.37;;
18726;SDS011;9492;51.888;5.186;2024-01-10T02:53:30;5.60;;;3.53;;
18726;SDS011;9492;51.888;5.186;2024-01-10T02:55:57;4.17;;;3.20;;
18726;SDS011;9492;51.888;5.186;2024-01-10T02:58:23;4.07;;;3.53;;
18726;SDS011;9492;51.888;5.186;2024-01-10T03:00:50;4.43;;;3.53;;
18726;SDS011;9492;51.888;5.186;2024-01-10T03:03:16;3.50;;;3.10;;
18726;SDS011;9492;51.888;5.186;2024-01-10T03:05:42;5.47;;;3.63;;
18726;SDS011;9492;51.888;5.186;2024-01-10T03:08:08;5.10;;;3.90;;
18726;SDS011;9492;51.888;5.186;2024-01-10T03:10:34;5.50;;;3.40;;
18726;SDS011;9492;51.888;5.186;2024-01-10T03:13:00;5.57;;;3.63;;
18726;SDS011;9492;51.888;5.186;2024-01-10T03:15:26;3.90;;;3.50;;
18726;SDS011;9492;51.888;5.186;2024-01-10T03:17:52;3.77;;;3.30;;
18726;SDS011;9492;51.888;5.186;2024-01-10T03:20:18;4.67;;;3.40;;
18726;SDS011;9492;51.888;5.186;2024-01-10T03:22:44;5.30;;;3.60;;
18726;SDS011;9492;51.888;5.186;2024-01-10T03:25:10;3.70;;;3.20;;
18726;SDS011;9492;51.888;5.186;2024-01-10T03:27:36;5.17;;;3.43;;
18726;SDS011;9492;51.888;5.186;2024-01-10T03:30:02;4.67;;;3.40;;
18726;SDS011;9492;51.888;5.186;2024-01-10T03:32:28;5.53;;;3.60;;
18726;SDS011;9492;51.888;5.186;2024-01-10T03:34:54;4.40;;;3.43;;
18726;SDS011;9492;51.888;5.186;2024-01-10T03:37:20;3.60;;;3.30;;
18726;SDS011;9492;51.888;5.186;2024-01-10T03:39:46;3.83;;;3.47;;
18726;SDS011;9492;51.888;5.186;2024-01-10T03:42:12;5.10;;;3.80;;
18726;SDS011;9492;51.888;5.186;2024-01-10T03:44:40;5.03;;;3.53;;
18726;SDS011;9492;51.888;5.186;2024-01-10T03:47:06;4.13;;;3.57;;
18726;SDS011;9492;51.888;5.186;2024-01-10T03:49:32;5.27;;;3.47;;
18726;SDS011;9492;51.888;5.186;2024-01-10T03:51:58;5.00;;;3.60;;
18726;SDS011;9492;51.888;5.186;2024-01-10T03:54:24;7.20;;;3.80;;
18726;SDS011;9492;51.888;5.186;2024-01-10T03:56:50;6.37;;;3.60;;
18726;SDS011;9492;51.888;5.186;2024-01-10T03:59:16;3.97;;;3.57;;
18726;SDS011;9492;51.888;5.186;2024-01-10T04:01:42;5.03;;;3.70;;
18726;SDS011;9492;51.888;5.186;2024-01-10T04:04:08;5.07;;;3.97;;
18726;SDS011;9492;51.888;5.186;2024-01-10T04:06:34;5.23;;;3.33;;
18726;SDS011;9492;51.888;5.186;2024-01-10T04:09:01;4.53;;;3.23;;
18726;SDS011;9492;51.888;5.186;2024-01-10T04:11:27;5.03;;;3.80;;
18726;SDS011;9492;51.888;5.186;2024-01-10T04:13:53;5.40;;;3.50;;
18726;SDS011;9492;51.888;5.186;2024-01-10T04:16:19;6.10;;;3.43;;
18726;SDS011;9492;51.888;5.186;2024-01-10T04:18:45;4.30;;;3.90;;
18726;SDS011;9492;51.888;5.186;2024-01-10T04:21:11;6.97;;;4.27;;
18726;SDS011;9492;51.888;5.186;2024-01-10T04:23:37;7.07;;;4.30;;
18726;SDS011;9492;51.888;5.186;2024-01-10T04:26:04;4.30;;;3.37;;
18726;SDS011;9492;51.888;5.186;2024-01-10T04:28:30;5.07;;;3.83;;
18726;SDS011;9492;51.888;5.186;2024-01-10T04:30:56;5.07;;;3.80;;
18726;SDS011;9492;51.888;5.186;2024-01-10T04:34:49;4.33;;;3.70;;
18726;SDS011;9492;51.888;5.186;2024-01-10T04:37:16;6.77;;;3.80;;
18726;SDS011;9492;51.888;5.186;2024-01-10T04:39:42;5.33;;;3.60;;
18726;SDS011;9492;51.888;5.186;2024-01-10T04:42:08;4.13;;;3.20;;
18726;SDS011;9492;51.888;5.186;2024-01-10T04:44:34;5.03;;;4.07;;
18726;SDS011;9492;51.888;5.186;2024-01-10T04:47:00;4.40;;;3.47;;
18726;SDS011;9492;51.888;5.186;2024-01-10T04:49:26;4.53;;;3.47;;
18726;SDS011;9492;51.888;5.186;2024-01-10T04:51:52;5.20;;;3.60;;
18726;SDS011;9492;51.888;5.186;2024-01-10T04:54:18;3.97;;;3.10;;
18726;SDS011;9492;51.888;5.186;2024-01-10T04:56:44;5.57;;;3.67;;
18726;SDS011;9492;51.888;5.186;2024-01-10T04:59:10;5.60;;;3.93;;
18726;SDS011;9492;51.888;5.186;2024-01-10T05:01:36;5.57;;;3.97;;
18726;SDS011;9492;51.888;5.186;2024-01-10T05:04:02;5.07;;;3.77;;
18726;SDS011;9492;51.888;5.186;2024-01-10T05:06:28;6.17;;;4.00;;
18726;SDS011;9492;51.888;5.186;2024-01-10T05:08:54;5.37;;;3.87;;
18726;SDS011;9492;51.888;5.186;2024-01-10T05:11:24;4.60;;;3.77;;
18726;SDS011;9492;51.888;5.186;2024-01-10T05:13:54;5.70;;;4.03;;
18726;SDS011;9492;51.888;5.186;2024-01-10T05:16:20;4.47;;;3.73;;
18726;SDS011;9492;51.888;5.186;2024-01-10T05:18:46;5.13;;;3.87;;
18726;SDS011;9492;51.888;5.186;2024-01-10T05:21:12;4.80;;;3.80;;
18726;SDS011;9492;51.888;5.186;2024-01-10T05:23:38;5.63;;;4.20;;
18726;SDS011;9492;51.888;5.186;2024-01-10T05:26:05;5.00;;;3.57;;
18726;SDS011;9492;51.888;5.186;2024-01-10T05:28:31;5.30;;;3.70;;
18726;SDS011;9492;51.888;5.186;2024-01-10T05:30:58;4.33;;;3.70;;
18726;SDS011;9492;51.888;5.186;2024-01-10T05:33:24;7.23;;;4.00;;
18726;SDS011;9492;51.888;5.186;2024-01-10T05:35:50;5.07;;;3.90;;
18726;SDS011;9492;51.888;5.186;2024-01-10T05:38:16;4.40;;;3.63;;
18726;SDS011;9492;51.888;5.186;2024-01-10T05:40:42;7.40;;;4.97;;
18726;SDS011;9492;51.888;5.186;2024-01-10T05:43:08;5.87;;;4.43;;
18726;SDS011;9492;51.888;5.186;2024-01-10T05:45:35;5.33;;;3.77;;
18726;SDS011;9492;51.888;5.186;2024-01-10T05:48:01;5.50;;;4.53;;
18726;SDS011;9492;51.888;5.186;2024-01-10T05:50:28;4.30;;;3.50;;
18726;SDS011;9492;51.888;5.186;2024-01-10T05:52:54;4.47;;;3.97;;
18726;SDS011;9492;51.888;5.186;2024-01-10T05:55:20;5.37;;;4.07;;
18726;SDS011;9492;51.888;5.186;2024-01-10T05:57:48;9.57;;;4.00;;
18726;SDS011;9492;51.888;5.186;2024-01-10T06:00:14;6.87;;;4.30;;
18726;SDS011;9492;51.888;5.186;2024-01-10T06:02:41;4.27;;;3.80;;
18726;SDS011;9492;51.888;5.186;2024-01-10T06:05:11;5.83;;;3.87;;
18726;SDS011;9492;51.888;5.186;2024-01-10T06:07:37;5.20;;;4.30;;
18726;SDS011;9492;51.888;5.186;2024-01-10T06:10:03;7.27;;;4.13;;
18726;SDS011;9492;51.888;5.186;2024-01-10T06:12:31;6.57;;;4.00;;
18726;SDS011;9492;51.888;5.186;2024-01-10T06:14:57;7.23;;;4.43;;
18726;SDS011;9492;51.888;5.186;2024-01-10T06:17:23;5.73;;;3.80;;
18726;SDS011;9492;51.888;5.186;2024-01-10T06:19:50;4.70;;;4.13;;
18726;SDS011;9492;51.888;5.186;2024-01-10T06:22:16;4.90;;;4.17;;
18726;SDS011;9492;51.888;5.186;2024-01-10T06:24:43;5.40;;;4.23;;
18726;SDS011;9492;51.888;5.186;2024-01-10T06:27:09;4.80;;;4.30;;
18726;SDS011;9492;51.888;5.186;2024-01-10T06:29:35;7.23;;;4.63;;
18726;SDS011;9492;51.888;5.186;2024-01-10T06:32:02;6.13;;;4.23;;
18726;SDS011;9492;51.888;5.186;2024-01-10T06:34:28;4.97;;;4.10;;
18726;SDS011;9492;51.888;5.186;2024-01-10T06:36:54;6.17;;;3.93;;
18726;SDS011;9492;51.888;5.186;2024-01-10T06:39:20;7.33;;;4.57;;
18726;SDS011;9492;51.888;5.186;2024-01-10T06:41:47;5.30;;;4.13;;
18726;SDS011;9492;51.888;5.186;2024-01-10T06:44:13;8.47;;;4.57;;
18726;SDS011;9492;51.888;5.186;2024-01-10T06:46:39;6.53;;;3.90;;
18726;SDS011;9492;51.888;5.186;2024-01-10T06:49:05;6.77;;;4.23;;
18726;SDS011;9492;51.888;5.186;2024-01-10T06:51:32;6.33;;;4.50;;
18726;SDS011;9492;51.888;5.186;2024-01-10T06:53:58;5.60;;;4.20;;
18726;SDS011;9492;51.888;5.186;2024-01-10T06:56:31;5.93;;;4.20;;
18726;SDS011;9492;51.888;5.186;2024-01-10T06:58:57;6.17;;;4.67;;
18726;SDS011;9492;51.888;5.186;2024-01-10T07:01:23;5.83;;;4.53;;
18726;SDS011;9492;51.888;5.186;2024-01-10T07:03:49;6.20;;;4.67;;
18726;SDS011;9492;51.888;5.186;2024-01-10T07:06:16;7.33;;;4.50;;
18726;SDS011;9492;51.888;5.186;2024-01-10T07:08:42;5.83;;;4.30;;
18726;SDS011;9492;51.888;5.186;2024-01-10T07:11:09;6.63;;;4.60;;
18726;SDS011;9492;51.888;5.186;2024-01-10T07:13:39;5.70;;;4.03;;
18726;SDS011;9492;51.888;5.186;2024-01-10T07:16:06;8.33;;;4.90;;
18726;SDS011;9492;51.888;5.186;2024-01-10T07:18:32;7.97;;;4.83;;
18726;SDS011;9492;51.888;5.186;2024-01-10T07:20:58;7.73;;;4.90;;
18726;SDS011;9492;51.888;5.186;2024-01-10T07:23:24;7.07;;;4.77;;
18726;SDS011;9492;51.888;5.186;2024-01-10T07:25:50;7.03;;;5.00;;
18726;SDS011;9492;51.888;5.186;2024-01-10T07:28:16;6.50;;;4.40;;
18726;SDS011;9492;51.888;5.186;2024-01-10T07:30:43;6.70;;;4.80;;
18726;SDS011;9492;51.888;5.186;2024-01-10T07:33:09;7.43;;;4.50;;
18726;SDS011;9492;51.888;5.186;2024-01-10T07:35:35;6.53;;;4.30;;
18726;SDS011;9492;51.888;5.186;2024-01-10T07:38:03;6.13;;;4.53;;
18726;SDS011;9492;51.888;5.186;2024-01-10T07:40:29;5.87;;;4.47;;
18726;SDS011;9492;51.888;5.186;2024-01-10T07:42:55;7.30;;;4.97;;
18726;SDS011;9492;51.888;5.186;2024-01-10T07:45:22;6.50;;;4.67;;
18726;SDS011;9492;51.888;5.186;2024-01-10T07:47:48;5.50;;;4.20;;
18726;SDS011;9492;51.888;5.186;2024-01-10T07:50:13;6.97;;;5.00;;
18726;SDS011;9492;51.888;5.186;2024-01-10T07:52:40;8.03;;;5.37;;
18726;SDS011;9492;51.888;5.186;2024-01-10T07:55:06;7.60;;;5.30;;
18726;SDS011;9492;51.888;5.186;2024-01-10T07:57:33;7.43;;;4.70;;
18726;SDS011;9492;51.888;5.186;2024-01-10T07:59:59;7.13;;;4.80;;
18726;SDS011;9492;51.888;5.186;2024-01-10T08:02:25;6.03;;;4.10;;
18726;SDS011;9492;51.888;5.186;2024-01-10T08:04:52;7.07;;;4.67;;
18726;SDS011;9492;51.888;5.186;2024-01-10T08:07:18;7.73;;;4.73;;
18726;SDS011;9492;51.888;5.186;2024-01-10T08:09:44;6.00;;;5.00;;
18726;SDS011;9492;51.888;5.186;2024-01-10T08:12:11;7.50;;;4.90;;
18726;SDS011;9492;51.888;5.186;2024-01-10T08:14:37;7.87;;;4.93;;
18726;SDS011;9492;51.888;5.186;2024-01-10T08:17:03;8.43;;;5.17;;
18726;SDS011;9492;51.888;5.186;2024-01-10T08:19:29;8.20;;;5.23;;
18726;SDS011;9492;51.888;5.186;2024-01-10T08:21:55;6.90;;;5.53;;
18726;SDS011;9492;51.888;5.186;2024-01-10T08:24:22;8.67;;;4.93;;
18726;SDS011;9492;51.888;5.186;2024-01-10T08:26:48;9.40;;;5.77;;
18726;SDS011;9492;51.888;5.186;2024-01-10T08:29:17;9.90;;;5.17;;
18726;SDS011;9492;51.888;5.186;2024-01-10T08:31:44;7.43;;;5.70;;
18726;SDS011;9492;51.888;5.186;2024-01-10T08:34:10;9.80;;;5.67;;
18726;SDS011;9492;51.888;5.186;2024-01-10T08:36:37;10.90;;;6.17;;
18726;SDS011;9492;51.888;5.186;2024-01-10T08:39:03;10.37;;;6.10;;
18726;SDS011;9492;51.888;5.186;2024-01-10T08:41:29;7.73;;;5.70;;
18726;SDS011;9492;51.888;5.186;2024-01-10T08:43:55;8.23;;;6.20;;
18726;SDS011;9492;51.888;5.186;2024-01-10T08:46:22;9.50;;;6.00;;
18726;SDS011;9492;51.888;5.186;2024-01-10T08:48:49;9.90;;;5.83;;
18726;SDS011;9492;51.888;5.186;2024-01-10T08:51:15;9.63;;;5.33;;
18726;SDS011;9492;51.888;5.186;2024-01-10T08:53:42;8.50;;;5.80;;
18726;SDS011;9492;51.888;5.186;2024-01-10T08:56:08;9.83;;;6.10;;
18726;SDS011;9492;51.888;5.186;2024-01-10T08:58:35;8.90;;;6.10;;
18726;SDS011;9492;51.888;5.186;2024-01-10T09:01:01;10.87;;;6.90;;
18726;SDS011;9492;51.888;5.186;2024-01-10T09:03:27;10.40;;;6.13;;
18726;SDS011;9492;51.888;5.186;2024-01-10T09:05:53;9.57;;;6.77;;
18726;SDS011;9492;51.888;5.186;2024-01-10T09:08:19;10.87;;;6.47;;
18726;SDS011;9492;51.888;5.186;2024-01-10T09:10:45;11.43;;;5.67;;
18726;SDS011;9492;51.888;5.186;2024-01-10T09:13:14;10.83;;;6.00;;
18726;SDS011;9492;51.888;5.186;2024-01-10T09:15:40;7.97;;;6.33;;
18726;SDS011;9492;51.888;5.186;2024-01-10T09:18:06;10.77;;;7.13;;
18726;SDS011;9492;51.888;5.186;2024-01-10T09:20:33;10.90;;;6.90;;
18726;SDS011;9492;51.888;5.186;2024-01-10T09:22:59;12.83;;;6.30;;
18726;SDS011;9492;51.888;5.186;2024-01-10T09:25:25;10.00;;;6.80;;
18726;SDS011;9492;51.888;5.186;2024-01-10T09:27:51;9.17;;;6.90;;
18726;SDS011;9492;51.888;5.186;2024-01-10T09:30:17;10.10;;;6.13;;
18726;SDS011;9492;51.888;5.186;2024-01-10T09:32:43;11.97;;;7.10;;
18726;SDS011;9492;51.888;5.186;2024-01-10T09:35:09;10.37;;;6.87;;
18726;SDS011;9492;51.888;5.186;2024-01-10T09:37:35;11.87;;;6.73;;
18726;SDS011;9492;51.888;5.186;2024-01-10T09:40:02;11.57;;;7.83;;
18726;SDS011;9492;51.888;5.186;2024-01-10T09:42:28;11.20;;;6.70;;
18726;SDS011;9492;51.888;5.186;2024-01-10T09:44:56;9.63;;;6.87;;
18726;SDS011;9492;51.888;5.186;2024-01-10T09:47:23;10.57;;;6.73;;
18726;SDS011;9492;51.888;5.186;2024-01-10T09:49:49;11.17;;;6.90;;
18726;SDS011;9492;51.888;5.186;2024-01-10T09:52:37;10.10;;;7.00;;
18726;SDS011;9492;51.888;5.186;2024-01-10T09:55:04;11.50;;;7.20;;
18726;SDS011;9492;51.888;5.186;2024-01-10T09:57:31;10.60;;;6.90;;
18726;SDS011;9492;51.888;5.186;2024-01-10T09:59:59;12.87;;;7.37;;
18726;SDS011;9492;51.888;5.186;2024-01-10T10:02:28;9.83;;;6.53;;
18726;SDS011;9492;51.888;5.186;2024-01-10T10:04:56;10.73;;;6.93;;
18726;SDS011;9492;51.888;5.186;2024-01-10T10:07:25;12.33;;;7.53;;
18726;SDS011;9492;51.888;5.186;2024-01-10T10:09:51;10.77;;;7.30;;
18726;SDS011;9492;51.888;5.186;2024-01-10T10:12:18;11.00;;;7.77;;
18726;SDS011;9492;51.888;5.186;2024-01-10T10:14:44;12.00;;;7.10;;
18726;SDS011;9492;51.888;5.186;2024-01-10T10:17:14;11.23;;;7.13;;
18726;SDS011;9492;51.888;5.186;2024-01-10T10:19:40;10.50;;;7.47;;
18726;SDS011;9492;51.888;5.186;2024-01-10T10:22:12;11.57;;;7.53;;
18726;SDS011;9492;51.888;5.186;2024-01-10T10:24:38;14.27;;;7.73;;
18726;SDS011;9492;51.888;5.186;2024-01-10T10:27:10;9.70;;;7.23;;
18726;SDS011;9492;51.888;5.186;2024-01-10T10:29:36;11.70;;;7.47;;
18726;SDS011;9492;51.888;5.186;2024-01-10T10:32:02;10.27;;;7.23;;
18726;SDS011;9492;51.888;5.186;2024-01-10T10:34:32;10.80;;;8.10;;
18726;SDS011;9492;51.888;5.186;2024-01-10T10:36:58;14.00;;;8.23;;
18726;SDS011;9492;51.888;5.186;2024-01-10T10:39:24;11.23;;;7.53;;
18726;SDS011;9492;51.888;5.186;2024-01-10T10:41:50;10.13;;;6.83;;
18726;SDS011;9492;51.888;5.186;2024-01-10T10:44:19;14.70;;;8.10;;
18726;SDS011;9492;51.888;5.186;2024-01-10T10:46:52;11.13;;;7.77;;
18726;SDS011;9492;51.888;5.186;2024-01-10T10:49:19;11.50;;;7.73;;
18726;SDS011;9492;51.888;5.186;2024-01-10T10:51:50;13.87;;;8.43;;
18726;SDS011;9492;51.888;5.186;2024-01-10T10:54:17;12.37;;;7.63;;
18726;SDS011;9492;51.888;5.186;2024-01-10T10:56:43;9.33;;;6.67;;
18726;SDS011;9492;51.888;5.186;2024-01-10T10:59:10;12.07;;;7.10;;
18726;SDS011;9492;51.888;5.186;2024-01-10T11:01:38;13.47;;;7.80;;
18726;SDS011;9492;51.888;5.186;2024-01-10T11:04:05;11.17;;;7.53;;
18726;SDS011;9492;51.888;5.186;2024-01-10T11:06:31;11.67;;;7.47;;
18726;SDS011;9492;51.888;5.186;2024-01-10T11:09:03;13.87;;;8.13;;
18726;SDS011;9492;51.888;5.186;2024-01-10T11:16:45;10.87;;;7.27;;
18726;SDS011;9492;51.888;5.186;2024-01-10T11:24:22;11.00;;;8.07;;
18726;SDS011;9492;51.888;5.186;2024-01-10T11:26:48;11.77;;;7.60;;
18726;SDS011;9492;51.888;5.186;2024-01-10T11:29:15;9.70;;;7.30;;
18726;SDS011;9492;51.888;5.186;2024-01-10T11:31:41;9.90;;;6.63;;
18726;SDS011;9492;51.888;5.186;2024-01-10T11:34:08;13.80;;;8.20;;
18726;SDS011;9492;51.888;5.186;2024-01-10T11:36:35;11.07;;;7.53;;
18726;SDS011;9492;51.888;5.186;2024-01-10T11:39:04;11.60;;;7.30;;
18726;SDS011;9492;51.888;5.186;2024-01-10T11:41:33;10.60;;;7.47;;
18726;SDS011;9492;51.888;5.186;2024-01-10T11:46:43;13.30;;;8.13;;
18726;SDS011;9492;51.888;5.186;2024-01-10T11:49:09;11.57;;;7.57;;
18726;SDS011;9492;51.888;5.186;2024-01-10T11:51:41;12.07;;;7.30;;
18726;SDS011;9492;51.888;5.186;2024-01-10T11:54:07;11.70;;;7.20;;
18726;SDS011;9492;51.888;5.186;2024-01-10T11:56:40;12.83;;;8.20;;
18726;SDS011;9492;51.888;5.186;2024-01-10T11:59:11;14.33;;;7.87;;
18726;SDS011;9492;51.888;5.186;2024-01-10T12:01:39;13.00;;;8.10;;
18726;SDS011;9492;51.888;5.186;2024-01-10T12:04:05;13.37;;;8.00;;
18726;SDS011;9492;51.888;5.186;2024-01-10T12:06:32;13.33;;;7.80;;
18726;SDS011;9492;51.888;5.186;2024-01-10T12:09:04;11.80;;;7.17;;
18726;SDS011;9492;51.888;5.186;2024-01-10T12:11:33;14.13;;;7.77;;
18726;SDS011;9492;51.888;5.186;2024-01-10T12:14:00;12.87;;;7.60;;
18726;SDS011;9492;51.888;5.186;2024-01-10T12:16:26;14.43;;;8.00;;
18726;SDS011;9492;51.888;5.186;2024-01-10T12:18:52;14.13;;;8.37;;
18726;SDS011;9492;51.888;5.186;2024-01-10T12:21:18;11.90;;;7.43;;
18726;SDS011;9492;51.888;5.186;2024-01-10T12:23:44;14.30;;;8.03;;
18726;SDS011;9492;51.888;5.186;2024-01-10T12:26:12;11.13;;;7.87;;
18726;SDS011;9492;51.888;5.186;2024-01-10T12:28:38;12.77;;;8.10;;
18726;SDS011;9492;51.888;5.186;2024-01-10T12:31:05;13.03;;;7.67;;
18726;SDS011;9492;51.888;5.186;2024-01-10T12:33:33;12.90;;;8.60;;
18726;SDS011;9492;51.888;5.186;2024-01-10T12:36:06;12.50;;;7.97;;
18726;SDS011;9492;51.888;5.186;2024-01-10T12:38:32;13.90;;;8.50;;
18726;SDS011;9492;51.888;5.186;2024-01-10T12:40:59;12.63;;;7.37;;
18726;SDS011;9492;51.888;5.186;2024-01-10T12:43:25;12.83;;;8.60;;
18726;SDS011;9492;51.888;5.186;2024-01-10T12:46:04;12.83;;;8.13;;
18726;SDS011;9492;51.888;5.186;2024-01-10T12:48:31;15.10;;;8.07;;
18726;SDS011;9492;51.888;5.186;2024-01-10T12:50:58;14.17;;;7.87;;
18726;SDS011;9492;51.888;5.186;2024-01-10T12:53:34;14.13;;;8.87;;
18726;SDS011;9492;51.888;5.186;2024-01-10T12:56:01;14.67;;;8.37;;
18726;SDS011;9492;51.888;5.186;2024-01-10T12:58:27;14.50;;;7.93;;
18726;SDS011;9492;51.888;5.186;2024-01-10T13:00:54;12.00;;;7.77;;
18726;SDS011;9492;51.888;5.186;2024-01-10T13:03:21;14.60;;;8.70;;
18726;SDS011;9492;51.888;5.186;2024-01-10T13:05:47;11.07;;;7.87;;
18726;SDS011;9492;51.888;5.186;2024-01-10T13:08:13;12.80;;;7.07;;
18726;SDS011;9492;51.888;5.186;2024-01-10T13:10:42;12.97;;;8.63;;
18726;SDS011;9492;51.888;5.186;2024-01-10T13:13:08;12.97;;;7.67;;
18726;SDS011;9492;51.888;5.186;2024-01-10T13:15:34;12.97;;;7.87;;
18726;SDS011;9492;51.888;5.186;2024-01-10T13:18:00;12.73;;;8.33;;
18726;SDS011;9492;51.888;5.186;2024-01-10T13:20:26;14.43;;;8.23;;
18726;SDS011;9492;51.888;5.186;2024-01-10T13:22:52;12.93;;;8.17;;
18726;SDS011;9492;51.888;5.186;2024-01-10T13:25:18;13.77;;;8.37;;
18726;SDS011;9492;51.888;5.186;2024-01-10T13:27:48;15.23;;;9.43;;
18726;SDS011;9492;51.888;5.186;2024-01-10T13:30:14;14.60;;;8.70;;
18726;SDS011;9492;51.888;5.186;2024-01-10T13:32:40;13.43;;;8.43;;
18726;SDS011;9492;51.888;5.186;2024-01-10T13:35:06;11.77;;;8.97;;
18726;SDS011;9492;51.888;5.186;2024-01-10T13:37:32;16.37;;;9.53;;
18726;SDS011;9492;51.888;5.186;2024-01-10T13:39:59;26.10;;;19.13;;
18726;SDS011;9492;51.888;5.186;2024-01-10T13:42:25;16.50;;;11.60;;
18726;SDS011;9492;51.888;5.186;2024-01-10T13:44:51;16.57;;;10.50;;
18726;SDS011;9492;51.888;5.186;2024-01-10T13:47:20;13.60;;;9.07;;
18726;SDS011;9492;51.888;5.186;2024-01-10T13:49:47;13.50;;;9.27;;
18726;SDS011;9492;51.888;5.186;2024-01-10T13:52:13;14.93;;;9.70;;
18726;SDS011;9492;51.888;5.186;2024-01-10T13:54:42;12.07;;;8.60;;
18726;SDS011;9492;51.888;5.186;2024-01-10T13:57:08;16.43;;;10.33;;
18726;SDS011;9492;51.888;5.186;2024-01-10T13:59:34;18.80;;;10.10;;
18726;SDS011;9492;51.888;5.186;2024-01-10T14:02:00;14.80;;;9.67;;
18726;SDS011;9492;51.888;5.186;2024-01-10T14:04:26;14.53;;;8.93;;
18726;SDS011;9492;51.888;5.186;2024-01-10T14:06:52;17.73;;;9.43;;
18726;SDS011;9492;51.888;5.186;2024-01-10T14:09:19;15.40;;;9.57;;
18726;SDS011;9492;51.888;5.186;2024-01-10T14:11:45;15.10;;;9.63;;
18726;SDS011;9492;51.888;5.186;2024-01-10T14:14:11;14.00;;;8.83;;
18726;SDS011;9492;51.888;5.186;2024-01-10T14:16:37;14.50;;;10.33;;
18726;SDS011;9492;51.888;5.186;2024-01-10T14:19:04;12.90;;;7.87;;
18726;SDS011;9492;51.888;5.186;2024-01-10T14:21:30;15.37;;;8.33;;
18726;SDS011;9492;51.888;5.186;2024-01-10T14:23:57;14.23;;;8.63;;
18726;SDS011;9492;51.888;5.186;2024-01-10T14:26:23;13.97;;;9.57;;
18726;SDS011;9492;51.888;5.186;2024-01-10T14:28:51;14.70;;;10.10;;
18726;SDS011;9492;51.888;5.186;2024-01-10T14:31:20;14.57;;;9.27;;
18726;SDS011;9492;51.888;5.186;2024-01-10T14:33:46;13.07;;;8.90;;
18726;SDS011;9492;51.888;5.186;2024-01-10T14:36:12;17.80;;;11.20;;
18726;SDS011;9492;51.888;5.186;2024-01-10T14:38:38;14.33;;;10.37;;
18726;SDS011;9492;51.888;5.186;2024-01-10T14:41:05;18.37;;;11.47;;
18726;SDS011;9492;51.888;5.186;2024-01-10T14:43:31;19.10;;;11.30;;
18726;SDS011;9492;51.888;5.186;2024-01-10T14:45:57;16.60;;;11.13;;
18726;SDS011;9492;51.888;5.186;2024-01-10T14:48:23;16.67;;;11.30;;
18726;SDS011;9492;51.888;5.186;2024-01-10T14:50:49;14.33;;;10.50;;
18726;SDS011;9492;51.888;5.186;2024-01-10T14:53:16;23.77;;;14.50;;
18726;SDS011;9492;51.888;5.186;2024-01-10T14:55:42;30.10;;;18.53;;
18726;SDS011;9492;51.888;5.186;2024-01-10T14:58:07;31.30;;;19.17;;
18726;SDS011;9492;51.888;5.186;2024-01-10T15:00:33;26.00;;;16.50;;
18726;SDS011;9492;51.888;5.186;2024-01-10T15:02:59;25.17;;;18.77;;
18726;SDS011;9492;51.888;5.186;2024-01-10T15:05:26;17.37;;;10.73;;